Time;durP1;ratioP1;P1;durP2;ratioP2;P2;SDS_P1;SDS_P2;PMS_P1;PMS_P2;Temp;Humidity;BMP_temperature;BMP_pressure;BME280_temperature;BME280_humidity;BME280_pressure;Samples;Min_cycle;Max_cycle;Signal;HPM_P1;HPM_P2
2023/09/07 00:01:29;;;;;;;19.60;14.93;;;;;;;21.28;100.00;100526.75;5106545;28;20027;-31
2023/09/07 00:03:55;;;;;;;18.30;14.50;;;;;;;21.22;100.00;100519.72;5105708;28;20091;-29
2023/09/07 00:06:20;;;;;;;19.10;14.45;;;;;;;21.04;100.00;100523.06;5106174;28;20462;-31
2023/09/07 00:08:46;;;;;;;19.30;14.38;;;;;;;21.07;100.00;100522.53;5105878;28;20026;-30
2023/09/07 00:11:40;;;;;;;18.15;15.13;;;;;;;20.97;100.00;100528.00;5105795;28;20020;-31
2023/09/07 00:14:07;;;;;;;19.17;15.02;;;;;;;21.30;100.00;100531.09;5033011;28;20069;-29
2023/09/07 00:16:37;;;;;;;19.58;15.60;;;;;;;21.38;100.00;100528.59;5105807;28;20031;-30
2023/09/07 00:19:04;;;;;;;18.25;14.77;;;;;;;21.30;100.00;100536.53;5106093;28;20028;-29
2023/09/07 00:21:29;;;;;;;21.85;15.77;;;;;;;21.21;100.00;100545.25;5105766;28;20504;-30
2023/09/07 00:23:57;;;;;;;18.63;15.63;;;;;;;21.06;100.00;100531.72;5105848;28;20034;-30
2023/09/07 00:26:26;;;;;;;19.95;15.23;;;;;;;21.02;100.00;100536.94;5106045;28;20031;-30
2023/09/07 00:28:54;;;;;;;18.65;14.85;;;;;;;20.95;100.00;100530.16;5105778;28;20023;-32
2023/09/07 00:31:20;;;;;;;24.40;15.90;;;;;;;20.86;100.00;100532.63;5105828;28;20030;-32
2023/09/07 00:33:45;;;;;;;16.35;14.27;;;;;;;20.90;100.00;100532.88;5105701;28;20023;-30
2023/09/07 00:36:11;;;;;;;16.60;14.25;;;;;;;20.82;100.00;100526.94;5105505;28;20023;-32
2023/09/07 00:38:36;;;;;;;18.80;14.38;;;;;;;20.93;100.00;100532.34;5105489;28;20032;-30
2023/09/07 00:41:02;;;;;;;17.00;14.70;;;;;;;20.73;100.00;100527.78;5105282;28;20051;-31
2023/09/07 00:43:27;;;;;;;22.58;16.40;;;;;;;20.65;100.00;100516.41;5105502;28;20424;-30
2023/09/07 00:45:53;;;;;;;20.05;15.27;;;;;;;20.67;100.00;100525.06;5106101;28;20027;-33
2023/09/07 00:48:18;;;;;;;34.70;24.92;;;;;;;20.85;100.00;100531.00;5105374;28;20027;-30
2023/09/07 00:50:44;;;;;;;43.08;28.92;;;;;;;20.79;100.00;100527.50;5105404;28;20050;-30
2023/09/07 00:53:11;;;;;;;36.85;25.50;;;;;;;20.77;100.00;100518.81;5105366;28;20041;-32
2023/09/07 00:55:37;;;;;;;33.42;21.85;;;;;;;20.81;100.00;100525.31;5105566;28;20027;-30
2023/09/07 00:58:05;;;;;;;28.17;19.48;;;;;;;20.82;100.00;100529.66;5105287;28;20031;-31
2023/09/07 01:00:31;;;;;;;28.15;20.00;;;;;;;21.02;100.00;100519.81;5105440;28;20138;-29
2023/09/07 01:03:00;;;;;;;27.38;19.38;;;;;;;20.82;100.00;100520.69;5105210;28;20050;-30
2023/09/07 01:05:46;;;;;;;26.65;19.35;;;;;;;20.84;100.00;100515.81;5105392;28;20489;-30
2023/09/07 01:08:19;;;;;;;26.27;19.60;;;;;;;20.62;100.00;100508.03;5105386;28;20043;-30
2023/09/07 01:10:45;;;;;;;29.15;18.90;;;;;;;20.64;100.00;100514.00;5105325;28;20028;-31
2023/09/07 01:13:10;;;;;;;23.60;17.42;;;;;;;20.55;100.00;100510.19;5105290;28;20393;-33
2023/09/07 01:15:37;;;;;;;23.05;18.40;;;;;;;20.66;100.00;100507.22;5105658;28;20061;-29
2023/09/07 01:18:03;;;;;;;27.83;18.15;;;;;;;20.83;100.00;100506.88;5105363;28;20031;-30
2023/09/07 01:20:35;;;;;;;25.60;17.88;;;;;;;20.60;100.00;100499.38;5105440;28;20053;-31
2023/09/07 01:23:03;;;;;;;21.67;16.75;;;;;;;20.48;100.00;100505.88;5105025;28;20031;-29
2023/09/07 01:25:28;;;;;;;25.17;17.35;;;;;;;20.59;100.00;100511.28;5105231;28;20020;-29
2023/09/07 01:28:21;;;;;;;25.67;18.02;;;;;;;20.44;100.00;100509.41;5105416;28;20599;-29
2023/09/07 01:30:55;;;;;;;26.73;17.70;;;;;;;20.29;100.00;100504.81;5101754;28;20096;-29
2023/09/07 01:33:20;;;;;;;25.67;17.50;;;;;;;20.28;100.00;100508.59;5105086;28;20123;-29
2023/09/07 01:35:46;;;;;;;20.30;15.90;;;;;;;20.24;100.00;100505.63;5105221;28;20110;-29
2023/09/07 01:38:12;;;;;;;24.17;17.45;;;;;;;20.11;100.00;100511.59;5105136;28;20030;-29
2023/09/07 01:40:37;;;;;;;20.48;15.35;;;;;;;20.10;100.00;100509.16;5105091;28;20097;-30
2023/09/07 01:43:24;;;;;;;21.00;16.35;;;;;;;20.33;100.00;100510.47;5104992;28;20443;-30
2023/09/07 01:45:49;;;;;;;22.30;17.05;;;;;;;20.08;100.00;100512.13;5105499;28;20023;-33
2023/09/07 01:48:15;;;;;;;20.02;15.40;;;;;;;20.08;100.00;100506.72;5105925;28;20058;-31
2023/09/07 01:50:41;;;;;;;19.42;16.20;;;;;;;20.09;100.00;100505.66;5108118;28;20447;-34
2023/09/07 01:53:46;;;;;;;20.60;15.70;;;;;;;20.01;100.00;100512.41;5109011;28;20516;-31
2023/09/07 01:56:12;;;;;;;22.80;16.38;;;;;;;19.99;100.00;100513.78;5104678;28;20448;-29
2023/09/07 01:59:06;;;;;;;20.20;15.40;;;;;;;20.03;100.00;100514.84;5108663;28;20041;-29
2023/09/07 02:01:58;;;;;;;20.17;15.38;;;;;;;19.87;100.00;100511.31;5090580;27;20046;-32
2023/09/07 02:04:45;;;;;;;19.05;16.00;;;;;;;20.00;100.00;100505.38;5104527;28;20039;-31
2023/09/07 02:07:12;;;;;;;20.83;15.27;;;;;;;20.13;100.00;100511.34;5108263;28;20026;-32
2023/09/07 02:09:47;;;;;;;21.77;16.83;;;;;;;20.02;100.00;100516.75;5108431;28;20030;-28
2023/09/07 02:12:12;;;;;;;21.92;16.02;;;;;;;19.91;100.00;100507.00;5108336;28;20077;-32
2023/09/07 02:14:56;;;;;;;17.20;15.15;;;;;;;20.18;100.00;100514.03;5108613;28;20055;-31
2023/09/07 02:17:22;;;;;;;20.63;15.85;;;;;;;20.05;100.00;100518.91;5108011;28;20034;-31
2023/09/07 02:20:10;;;;;;;18.85;15.57;;;;;;;19.97;100.00;100515.94;5108311;28;20031;-31
2023/09/07 02:22:58;;;;;;;19.50;14.85;;;;;;;19.78;100.00;100507.53;5108059;28;20024;-32
2023/09/07 02:25:43;;;;;;;20.13;15.82;;;;;;;19.96;100.00;100509.72;5095332;28;20035;-31
2023/09/07 02:28:10;;;;;;;20.35;15.82;;;;;;;19.66;100.00;100508.56;5108131;28;20055;-31
2023/09/07 02:30:45;;;;;;;19.10;14.70;;;;;;;19.71;100.00;100501.56;5108234;28;20506;-31
2023/09/07 02:33:10;;;;;;;19.55;15.32;;;;;;;19.91;100.00;100504.28;5108261;28;20038;-32
2023/09/07 02:35:53;;;;;;;19.85;15.57;;;;;;;19.79;100.00;100515.38;5107782;28;20013;-29
2023/09/07 02:38:47;;;;;;;17.73;15.07;;;;;;;19.55;100.00;100506.91;5107890;28;20187;-31
2023/09/07 02:41:12;;;;;;;18.67;14.77;;;;;;;19.63;100.00;100506.38;5107433;28;20039;-30
2023/09/07 02:43:49;;;;;;;20.23;15.00;;;;;;;19.74;100.00;100517.28;5108267;28;20038;-29
2023/09/07 02:46:16;;;;;;;19.40;14.70;;;;;;;19.51;100.00;100510.44;5107480;28;20019;-30
2023/09/07 02:48:50;;;;;;;17.92;15.32;;;;;;;19.79;100.00;100517.28;5107796;28;20173;-29
2023/09/07 02:51:17;;;;;;;18.17;14.40;;;;;;;19.74;100.00;100523.50;5106949;28;20093;-29
2023/09/07 02:53:54;;;;;;;19.85;14.70;;;;;;;19.67;100.00;100518.28;5107743;28;20130;-30
2023/09/07 02:56:19;;;;;;;18.38;14.77;;;;;;;19.74;100.00;100511.88;5107434;28;20027;-30
2023/09/07 02:59:23;;;;;;;19.50;14.05;;;;;;;19.61;100.00;100500.44;5107411;28;20038;-29
2023/09/07 03:02:09;;;;;;;19.35;14.60;;;;;;;19.83;100.00;100505.63;5024318;28;20464;-30
2023/09/07 03:04:35;;;;;;;16.73;13.32;;;;;;;19.70;100.00;100510.75;5023759;28;20138;-29
2023/09/07 03:07:01;;;;;;;18.23;14.88;;;;;;;19.37;100.00;100496.59;5073863;28;20474;-30
2023/09/07 03:10:02;;;;;;;20.85;14.38;;;;;;;19.40;100.00;100517.72;5106904;28;20035;-30
2023/09/07 03:12:28;;;;;;;18.33;15.15;;;;;;;19.56;100.00;100519.38;5024024;28;20506;-30
2023/09/07 03:14:54;;;;;;;18.23;13.88;;;;;;;19.60;100.00;100519.66;5089777;28;20040;-29
2023/09/07 03:17:20;;;;;;;20.10;14.65;;;;;;;19.57;100.00;100523.69;5106731;28;20036;-29
2023/09/07 03:19:47;;;;;;;19.70;13.77;;;;;;;19.59;100.00;100518.03;5107178;28;20032;-29
2023/09/07 03:22:44;;;;;;;18.00;13.23;;;;;;;19.64;100.00;100518.84;5107287;27;20027;-29
2023/09/07 03:25:28;;;;;;;18.40;13.95;;;;;;;19.52;100.00;100521.00;5106739;28;20126;-30
2023/09/07 03:27:53;;;;;;;17.58;13.43;;;;;;;19.46;100.00;100522.06;5106991;28;20024;-30
2023/09/07 03:30:31;;;;;;;19.80;13.88;;;;;;;19.42;100.00;100526.38;5106901;28;20030;-29
2023/09/07 03:32:58;;;;;;;17.55;13.90;;;;;;;19.38;100.00;100519.88;5106544;28;20481;-29
2023/09/07 03:35:33;;;;;;;20.20;13.85;;;;;;;19.26;100.00;100510.09;5106351;28;20042;-29
2023/09/07 03:37:59;;;;;;;18.58;14.00;;;;;;;19.28;100.00;100515.25;5106468;28;20023;-32
2023/09/07 03:40:33;;;;;;;18.83;14.68;;;;;;;19.21;100.00;100520.91;5106636;28;20037;-30
2023/09/07 03:42:59;;;;;;;17.35;14.05;;;;;;;19.14;100.00;100520.31;5106383;28;20032;-29
2023/09/07 03:45:24;;;;;;;19.00;14.18;;;;;;;19.54;100.00;100526.94;5106188;28;20032;-30
2023/09/07 03:48:13;;;;;;;17.05;13.20;;;;;;;19.73;100.00;100526.47;5106314;28;20023;-29
2023/09/07 03:50:38;;;;;;;14.52;12.43;;;;;;;19.41;100.00;100530.97;5094973;28;20051;-29
2023/09/07 03:53:36;;;;;;;16.58;13.90;;;;;;;19.30;100.00;100528.50;5106327;28;20682;-29
2023/09/07 03:56:02;;;;;;;;;;;;;;;19.19;100.00;100539.28;5061395;27;20621;-28
2023/09/07 03:58:37;;;;;;;20.73;13.82;;;;;;;18.99;100.00;100533.78;5106361;28;19911;-30
2023/09/07 04:01:20;;;;;;;20.67;14.57;;;;;;;18.87;100.00;100539.41;5106396;28;20027;-30
2023/09/07 04:03:45;;;;;;;19.75;14.65;;;;;;;18.72;100.00;100529.31;5106324;28;20081;-27
2023/09/07 04:06:37;;;;;;;19.15;15.05;;;;;;;18.58;100.00;100541.66;5106119;28;20411;-31
2023/09/07 04:09:30;;;;;;;21.80;15.32;;;;;;;18.48;100.00;100542.38;5101919;28;20096;-29
2023/09/07 04:11:56;;;;;;;19.05;13.95;;;;;;;18.65;100.00;100544.91;5105493;28;20093;-29
2023/09/07 04:14:21;;;;;;;17.42;14.98;;;;;;;18.67;100.00;100545.47;5106048;28;20779;-29
2023/09/07 04:17:13;;;;;;;18.73;15.07;;;;;;;18.59;100.00;100545.97;5106076;28;20181;-31
2023/09/07 04:20:08;;;;;;;20.77;15.00;;;;;;;18.47;100.00;100538.88;5102322;28;20035;-30
2023/09/07 04:23:06;;;;;;;20.88;15.38;;;;;;;18.53;100.00;100552.41;5106022;28;20063;-29
2023/09/07 04:25:32;;;;;;;21.27;16.08;;;;;;;18.64;100.00;100549.50;5098445;28;20044;-31
2023/09/07 04:28:09;;;;;;;20.08;16.52;;;;;;;18.86;100.00;100556.72;5105745;28;20020;-31
2023/09/07 04:31:07;;;;;;;19.63;15.45;;;;;;;18.73;100.00;100551.72;5105752;28;20118;-33
2023/09/07 04:33:33;;;;;;;22.55;16.40;;;;;;;18.70;100.00;100549.56;5105968;28;20019;-30
2023/09/07 04:36:13;;;;;;;22.55;17.23;;;;;;;18.66;100.00;100538.47;5105812;28;20035;-31
2023/09/07 04:38:38;;;;;;;18.90;16.58;;;;;;;18.44;100.00;100547.47;5105309;28;20408;-29
2023/09/07 04:41:14;;;;;;;19.95;16.55;;;;;;;18.48;100.00;100554.00;5105589;28;20563;-29
2023/09/07 04:44:26;;;;;;;19.58;15.82;;;;;;;18.52;100.00;100542.69;5105612;28;20157;-29
2023/09/07 04:46:27;;;;;;;;;;;;;;;18.77;100.00;100556.34;5074567;28;20178;-29
2023/09/07 04:49:15;;;;;;;27.80;18.80;;;;;;;18.89;100.00;100558.88;5084259;28;19998;-29
2023/09/07 04:51:41;;;;;;;33.65;23.55;;;;;;;18.78;100.00;100566.09;5078933;28;20048;-29
2023/09/07 04:54:06;;;;;;;31.08;21.55;;;;;;;18.59;100.00;100556.75;5085083;28;20053;-30
2023/09/07 04:56:31;;;;;;;28.80;19.75;;;;;;;18.72;100.00;100559.03;5085264;28;20035;-31
2023/09/07 04:59:20;;;;;;;23.77;17.63;;;;;;;19.06;100.00;100573.03;5085060;28;20016;-29
2023/09/07 05:01:45;;;;;;;20.23;15.98;;;;;;;18.83;100.00;100570.72;5079347;28;20032;-29
2023/09/07 05:04:11;;;;;;;20.25;15.00;;;;;;;18.85;100.00;100566.69;5085017;28;20042;-29
2023/09/07 05:06:40;;;;;;;17.17;15.10;;;;;;;18.93;100.00;100551.06;5085085;28;20033;-30
2023/09/07 05:09:23;;;;;;;22.48;14.38;;;;;;;19.06;100.00;100555.97;5084535;28;20610;-29
2023/09/07 05:11:49;;;;;;;16.35;13.13;;;;;;;18.99;100.00;100567.03;5085186;28;20489;-29
2023/09/07 05:14:24;;;;;;;21.25;14.63;;;;;;;19.20;100.00;100565.22;5085100;28;20035;-32
2023/09/07 05:16:49;;;;;;;19.63;13.90;;;;;;;19.24;100.00;100558.22;5085454;28;20618;-29
2023/09/07 05:19:24;;;;;;;16.52;13.85;;;;;;;19.30;100.00;100552.84;5084817;28;20504;-32
2023/09/07 05:21:49;;;;;;;17.45;14.20;;;;;;;19.40;100.00;100550.16;5085039;28;20016;-29
2023/09/07 05:24:50;;;;;;;16.70;13.90;;;;;;;19.51;100.00;100557.22;5085993;28;20454;-31
2023/09/07 05:27:27;;;;;;;18.25;13.98;;;;;;;19.72;100.00;100549.22;5045639;28;20033;-30
2023/09/07 05:29:53;;;;;;;17.85;13.68;;;;;;;19.82;100.00;100543.81;5083333;28;20077;-29
2023/09/07 05:32:27;;;;;;;19.75;13.70;;;;;;;20.22;100.00;100561.16;5088545;28;20028;-30
2023/09/07 05:34:53;;;;;;;17.63;13.30;;;;;;;20.48;100.00;100551.91;5088432;28;20024;-31
2023/09/07 05:37:30;;;;;;;19.02;13.70;;;;;;;20.70;100.00;100550.00;5088100;28;20024;-32
2023/09/07 05:39:56;;;;;;;19.05;14.00;;;;;;;20.77;100.00;100558.69;5088498;28;20020;-30
2023/09/07 05:42:21;;;;;;;21.80;13.82;;;;;;;20.81;100.00;100557.84;5088310;28;20028;-31
2023/09/07 05:44:46;;;;;;;16.35;14.02;;;;;;;20.96;100.00;100559.69;5088799;28;20413;-30
2023/09/07 05:47:34;;;;;;;18.48;12.85;;;;;;;21.13;100.00;100564.81;5088197;28;20028;-30
2023/09/07 05:49:59;;;;;;;17.42;12.70;;;;;;;21.34;100.00;100564.72;5088668;28;20063;-33
2023/09/07 05:52:34;;;;;;;18.65;14.27;;;;;;;21.47;100.00;100555.97;5087865;28;20781;-29
2023/09/07 05:54:59;;;;;;;19.83;14.30;;;;;;;21.65;100.00;100558.06;5088485;28;20027;-29
2023/09/07 05:57:27;;;;;;;20.52;14.18;;;;;;;21.58;100.00;100554.84;5088250;28;20020;-29
2023/09/07 05:59:52;;;;;;;18.13;13.60;;;;;;;21.54;100.00;100570.06;5088165;28;20111;-29
2023/09/07 06:02:37;;;;;;;20.17;14.38;;;;;;;21.57;100.00;100569.50;5097135;28;20048;-29
2023/09/07 06:05:02;;;;;;;23.73;15.77;;;;;;;21.54;100.00;100559.22;5104858;28;20033;-30
2023/09/07 06:07:48;;;;;;;17.42;14.13;;;;;;;21.77;100.00;100567.75;5108403;28;20027;-29
2023/09/07 06:10:19;;;;;;;19.15;14.23;;;;;;;21.66;100.00;100567.84;5107797;28;20047;-30
2023/09/07 06:12:50;;;;;;;16.42;13.85;;;;;;;21.78;99.68;100564.78;5102087;27;20123;-29
2023/09/07 06:15:16;;;;;;;20.05;14.57;;;;;;;21.64;100.00;100551.00;5108051;28;20027;-39
2023/09/07 06:17:50;;;;;;;20.30;14.90;;;;;;;21.80;100.00;100567.19;5108154;28;20027;-29
2023/09/07 06:20:17;;;;;;;17.77;13.73;;;;;;;21.86;100.00;100566.06;5108041;28;20030;-32
2023/09/07 06:22:52;;;;;;;17.95;13.57;;;;;;;22.17;96.82;100565.84;5108205;28;20102;-33
2023/09/07 06:25:18;;;;;;;20.17;14.23;;;;;;;22.31;95.90;100572.25;5107501;28;20028;-29
2023/09/07 06:28:01;;;;;;;20.25;15.35;;;;;;;;;;5108478;28;20518;-29
2023/09/07 06:30:26;;;;;;;17.83;14.45;;;;;;;22.79;93.10;100575.06;5106216;28;20715;-30
2023/09/07 06:32:56;;;;;;;21.77;13.50;;;;;;;22.83;91.29;100581.56;5107103;28;20496;-29
2023/09/07 06:35:21;;;;;;;21.10;14.95;;;;;;;23.00;91.40;100583.00;5106871;28;20039;-31
2023/09/07 06:38:02;;;;;;;19.80;13.63;;;;;;;23.02;92.14;100575.41;5107541;28;20066;-31
2023/09/07 06:40:27;;;;;;;19.98;13.95;;;;;;;23.03;92.46;100574.31;5107620;28;20034;-31
2023/09/07 06:43:05;;;;;;;24.08;14.05;;;;;;;22.98;93.03;100571.59;5107935;28;20035;-29
2023/09/07 06:45:35;;;;;;;18.05;14.00;;;;;;;22.75;93.57;100560.44;5107613;28;20106;-29
2023/09/07 06:48:04;;;;;;;19.73;14.35;;;;;;;22.98;92.56;100579.78;5107490;28;20035;-30
2023/09/07 06:50:29;;;;;;;17.80;13.70;;;;;;;23.07;91.41;100583.50;5107469;28;20111;-29
2023/09/07 06:53:07;;;;;;;18.45;14.20;;;;;;;23.10;92.88;100579.41;5106979;28;20027;-31
2023/09/07 06:55:32;;;;;;;;;;;;;;;23.02;92.31;100584.38;5107118;28;20091;-30
2023/09/07 06:58:06;;;;;;;17.10;14.37;;;;;;;22.79;93.30;100577.78;5107415;28;20010;-30
2023/09/07 07:00:32;;;;;;;23.40;16.77;;;;;;;22.77;94.62;100577.28;5106957;28;20719;-30
2023/09/07 07:03:15;;;;;;;20.25;15.80;;;;;;;22.92;94.27;100580.94;5107261;28;20615;-30
2023/09/07 07:05:42;;;;;;;19.90;14.88;;;;;;;22.99;93.36;100578.69;5107126;28;20516;-31
2023/09/07 07:08:07;;;;;;;16.70;14.05;;;;;;;23.32;91.51;100587.03;5107315;28;20020;-29
2023/09/07 07:11:02;;;;;;;16.75;14.07;;;;;;;23.37;91.82;100592.38;5107022;28;20028;-29
2023/09/07 07:13:27;;;;;;;15.70;12.05;;;;;;;23.50;87.94;100585.41;5106728;28;20066;-33
2023/09/07 07:16:06;;;;;;;14.20;11.52;;;;;;;23.72;86.30;100598.47;5106909;28;20483;-31
2023/09/07 07:18:32;;;;;;;14.85;12.05;;;;;;;23.76;85.26;100603.03;5107055;28;20027;-30
2023/09/07 07:21:30;;;;;;;14.15;12.48;;;;;;;23.76;85.55;100583.97;5107346;28;20035;-30
2023/09/07 07:23:55;;;;;;;15.93;12.25;;;;;;;23.94;84.93;100579.63;5071782;27;20632;-29
2023/09/07 07:26:29;;;;;;;16.75;12.13;;;;;;;24.01;82.63;100590.97;5106564;28;20059;-30
2023/09/07 07:29:45;;;;;;;12.98;10.55;;;;;;;23.97;81.61;100591.88;5107011;28;20027;-29
2023/09/07 07:31:46;;;;;;;16.55;11.60;;;;;;;24.02;81.32;100578.16;5097526;28;20126;-31
2023/09/07 07:34:34;;;;;;;15.57;10.52;;;;;;;24.33;78.72;100592.09;5106706;28;20088;-30
2023/09/07 07:36:59;;;;;;;14.43;10.15;;;;;;;24.43;77.76;100586.47;5105929;28;20027;-29
2023/09/07 07:39:34;;;;;;;11.80;8.88;;;;;;;24.83;73.65;100591.53;5105273;28;20050;-30
2023/09/07 07:41:59;;;;;;;11.70;8.75;;;;;;;25.29;71.70;100589.84;5103686;28;20072;-32
2023/09/07 07:44:45;;;;;;;10.27;8.18;;;;;;;25.51;67.98;100591.81;5105752;28;20027;-29
2023/09/07 07:47:40;;;;;;;10.05;7.90;;;;;;;25.59;66.65;100589.16;5103544;28;20673;-32
2023/09/07 07:50:06;;;;;;;10.75;7.40;;;;;;;25.80;60.60;100605.09;5049846;28;20044;-31
2023/09/07 07:52:37;;;;;;;11.93;7.20;;;;;;;26.00;62.98;100606.59;5104519;28;20051;-30
2023/09/07 07:55:03;;;;;;;9.23;6.28;;;;;;;26.48;52.94;100602.41;5106422;28;20038;-30
2023/09/07 07:57:49;;;;;;;8.30;6.68;;;;;;;26.50;57.22;100587.31;5106377;28;20028;-32
2023/09/07 08:00:14;;;;;;;11.07;6.82;;;;;;;26.55;59.28;100589.09;5106002;27;20042;-30
2023/09/07 08:02:43;;;;;;;11.13;7.13;;;;;;;26.73;58.32;100588.09;5106183;28;20035;-30
2023/09/07 08:05:09;;;;;;;11.77;6.43;;;;;;;26.54;55.50;100591.03;5105905;28;20563;-30
2023/09/07 08:07:34;;;;;;;14.27;6.47;;;;;;;26.16;55.90;100590.63;5106191;28;20032;-32
2023/09/07 08:10:00;;;;;;;32.05;9.70;;;;;;;26.63;55.39;100599.31;5106133;28;20031;-31
2023/09/07 08:12:27;;;;;;;14.95;7.10;;;;;;;27.09;54.17;100589.84;5105552;28;20024;-30
2023/09/07 08:14:52;;;;;;;10.50;5.17;;;;;;;27.14;48.29;100606.13;5106234;28;20388;-30
2023/09/07 08:17:20;;;;;;;11.20;5.00;;;;;;;27.13;45.71;100600.97;5105807;28;20023;-29
2023/09/07 08:20:11;;;;;;;7.60;4.75;;;;;;;27.39;44.70;100601.06;5105850;28;20672;-30
2023/09/07 08:22:37;;;;;;;9.43;5.60;;;;;;;27.40;47.90;100592.53;5105663;28;20035;-30
2023/09/07 08:25:26;;;;;;;9.88;4.97;;;;;;;26.97;47.18;100592.38;5105503;28;20027;-30
2023/09/07 08:27:53;;;;;;;7.55;4.63;;;;;;;27.38;46.88;100591.22;5105482;28;20034;-29
2023/09/07 08:30:28;;;;;;;7.40;5.18;;;;;;;27.62;45.99;100596.25;5105123;28;20523;-30
2023/09/07 08:32:55;;;;;;;6.95;4.57;;;;;;;27.82;44.70;100598.34;5085202;28;20048;-30
2023/09/07 08:35:30;;;;;;;7.78;4.30;;;;;;;28.10;39.88;100594.53;5084988;28;20027;-33
2023/09/07 08:37:57;;;;;;;10.38;4.32;;;;;;;28.24;41.49;100584.97;5085348;28;20093;-32
2023/09/07 08:40:23;;;;;;;;;;;;;;;28.15;43.99;100586.13;5086182;28;20602;-30
2023/09/07 08:43:28;;;;;;;9.07;4.97;;;;;;;28.62;41.78;100584.25;5085298;28;19912;-31
2023/09/07 08:46:12;;;;;;;8.65;4.80;;;;;;;28.64;42.66;100583.94;5021867;28;20055;-32
2023/09/07 08:48:38;;;;;;;10.05;5.15;;;;;;;28.61;42.34;100587.34;5022138;28;20038;-31
2023/09/07 08:51:06;;;;;;;6.72;4.18;;;;;;;28.28;39.87;100574.19;5061564;28;20140;-33
2023/09/07 08:53:33;;;;;;;10.00;4.60;;;;;;;27.94;40.96;100581.31;5105454;28;20034;-31
2023/09/07 08:56:17;;;;;;;7.32;4.88;;;;;;;28.13;39.78;100582.91;5105500;28;20050;-30
2023/09/07 08:59:09;;;;;;;8.07;4.38;;;;;;;27.88;39.75;100579.84;5109139;28;20043;-33
2023/09/07 09:01:34;;;;;;;6.50;4.30;;;;;;;28.00;40.81;100571.00;5106850;28;20028;-30
2023/09/07 09:04:07;;;;;;;7.18;4.63;;;;;;;27.83;41.70;100556.13;5109498;28;20088;-32
2023/09/07 09:06:34;;;;;;;7.10;4.20;;;;;;;27.28;42.32;100564.13;5109632;28;20047;-31
2023/09/07 09:09:00;;;;;;;7.95;4.68;;;;;;;27.34;40.29;100569.16;5109852;28;20097;-31
2023/09/07 09:11:53;;;;;;;7.68;4.95;;;;;;;27.21;39.85;100562.66;5109376;28;20467;-32
2023/09/07 09:14:19;;;;;;;7.97;4.22;;;;;;;27.54;38.75;100554.03;5109836;28;20034;-33
2023/09/07 09:16:55;;;;;;;7.80;4.28;;;;;;;28.14;38.39;100555.16;5109431;28;20031;-31
2023/09/07 09:19:36;;;;;;;5.18;4.07;;;;;;;28.66;36.69;100556.97;5109535;28;20108;-32
2023/09/07 09:22:03;;;;;;;6.90;4.18;;;;;;;28.85;36.74;100549.16;5109105;28;20039;-31
2023/09/07 09:24:43;;;;;;;9.65;4.10;;;;;;;28.73;36.67;100551.78;5109279;28;20023;-32
2023/09/07 09:27:09;;;;;;;8.98;4.45;;;;;;;28.92;37.37;100547.81;5108548;28;20019;-30
2023/09/07 09:29:35;;;;;;;12.43;6.88;;;;;;;28.75;37.06;100540.47;5109245;28;20766;-32
2023/09/07 09:32:29;;;;;;;15.77;10.80;;;;;;;28.91;36.98;100541.53;5109274;28;20027;-31
2023/09/07 09:34:55;;;;;;;7.03;4.03;;;;;;;29.36;36.40;100534.63;5108781;28;20585;-33
2023/09/07 09:37:30;;;;;;;10.45;4.28;;;;;;;29.55;35.63;100532.25;5109262;28;20111;-32
2023/09/07 09:39:59;;;;;;;9.15;4.50;;;;;;;29.41;35.43;100537.19;5108739;28;20043;-30
2023/09/07 09:42:33;;;;;;;6.55;3.97;;;;;;;29.63;34.63;100534.09;5109044;28;20045;-31
2023/09/07 09:44:59;;;;;;;6.88;4.30;;;;;;;29.23;34.10;100539.25;5107842;28;20465;-33
2023/09/07 09:47:38;;;;;;;5.82;4.20;;;;;;;29.18;36.05;100533.97;5108259;28;20111;-30
2023/09/07 09:50:44;;;;;;;6.88;4.28;;;;;;;28.91;36.33;100526.97;5108073;28;20015;-30
2023/09/07 09:53:42;;;;;;;6.47;4.50;;;;;;;29.09;37.59;100522.19;5071943;28;20162;-30
2023/09/07 09:56:36;;;;;;;9.57;5.13;;;;;;;29.54;35.00;100511.38;5069054;28;20032;-29
2023/09/07 09:59:02;;;;;;;8.00;4.88;;;;;;;30.10;34.72;100515.72;5050065;28;20037;-31
2023/09/07 10:01:46;;;;;;;9.55;4.80;;;;;;;30.52;34.92;100510.09;5088699;28;20069;-32
2023/09/07 10:04:17;;;;;;;7.82;4.90;;;;;;;30.10;35.98;100507.47;5088293;28;20024;-29
2023/09/07 10:07:01;;;;;;;10.55;5.10;;;;;;;29.81;34.96;100511.97;5103929;28;20114;-30
2023/09/07 10:09:55;;;;;;;6.47;4.65;;;;;;;29.87;34.96;100512.56;5087455;28;20024;-32
2023/09/07 10:12:54;;;;;;;9.85;4.95;;;;;;;28.98;36.14;100513.56;5106702;28;20027;-33
2023/09/07 10:15:27;;;;;;;8.63;4.88;;;;;;;29.42;36.32;100506.66;5108705;28;20066;-30
2023/09/07 10:18:07;;;;;;;9.73;6.20;;;;;;;29.88;34.99;100501.25;5108341;28;20487;-30
2023/09/07 10:20:58;;;;;;;17.92;15.98;;;;;;;29.89;34.99;100502.84;5108009;28;20096;-32
2023/09/07 10:24:04;;;;;;;10.13;6.90;;;;;;;29.79;34.82;100490.34;5108161;28;20030;-31
2023/09/07 10:26:30;;;;;;;10.30;6.50;;;;;;;30.26;33.51;100497.47;5066283;28;20130;-30
2023/09/07 10:29:03;;;;;;;7.90;4.80;;;;;;;30.30;33.22;100498.41;5107893;27;20118;-30
2023/09/07 10:31:42;;;;;;;;;;;;;;;;;;;;;
2023/09/07 10:34:12;;;;;;;7.18;4.70;;;;;;;31.28;32.12;100480.22;5104665;28;20040;-30
2023/09/07 10:36:37;;;;;;;12.05;5.65;;;;;;;31.97;31.85;100490.03;5108108;28;20097;-30
2023/09/07 10:39:05;;;;;;;8.60;4.45;;;;;;;31.41;31.70;100487.31;5107360;28;20027;-30
2023/09/07 10:42:05;;;;;;;6.00;4.25;;;;;;;31.08;31.07;100469.03;5107394;28;20110;-30
2023/09/07 10:44:31;;;;;;;8.07;4.22;;;;;;;30.95;31.49;100475.69;5107603;28;20020;-33
2023/09/07 10:46:59;;;;;;;9.82;4.60;;;;;;;30.80;32.60;100477.97;5107845;28;20039;-30
2023/09/07 10:49:25;;;;;;;7.47;4.70;;;;;;;31.10;32.60;100483.25;5107668;28;20097;-29
2023/09/07 10:52:09;;;;;;;6.82;4.50;;;;;;;31.06;31.37;100476.84;5106586;28;20443;-31
2023/09/07 10:54:35;;;;;;;7.13;4.40;;;;;;;30.97;32.72;100467.91;5107520;28;20039;-33
2023/09/07 10:57:11;;;;;;;8.30;4.53;;;;;;;30.70;31.71;100463.91;5107580;28;20063;-29
2023/09/07 10:59:36;;;;;;;6.95;4.35;;;;;;;31.04;32.63;100476.38;5107817;28;20031;-30
2023/09/07 11:02:31;;;;;;;6.47;4.47;;;;;;;31.00;31.57;100461.69;5108011;28;20019;-29
2023/09/07 11:05:15;;;;;;;7.78;4.60;;;;;;;30.65;31.67;100456.69;5069041;28;20055;-30
2023/09/07 11:07:43;;;;;;;7.90;4.95;;;;;;;31.12;31.49;100455.34;5107388;28;20404;-30
2023/09/07 11:10:14;;;;;;;9.20;4.30;;;;;;;30.37;32.45;100446.34;5107168;28;20132;-29
2023/09/07 11:12:40;;;;;;;8.52;4.40;;;;;;;30.12;33.36;100455.69;5107018;28;20080;-29
2023/09/07 11:15:19;;;;;;;7.55;4.38;;;;;;;29.67;33.70;100454.53;5107461;27;20035;-30
2023/09/07 11:17:45;;;;;;;5.93;4.10;;;;;;;29.65;34.19;100441.13;5107071;28;20027;-30
2023/09/07 11:20:11;;;;;;;6.00;4.60;;;;;;;29.96;31.97;100445.38;5106384;28;20028;-29
2023/09/07 11:22:38;;;;;;;6.55;4.15;;;;;;;29.63;32.19;100448.91;5105814;28;20054;-30
2023/09/07 11:25:05;;;;;;;8.75;4.82;;;;;;;30.00;33.27;100429.78;5106877;28;20068;-30
2023/09/07 11:27:31;;;;;;;7.15;4.13;;;;;;;30.08;32.02;100439.09;5106867;28;20059;-29
2023/09/07 11:29:58;;;;;;;8.10;4.70;;;;;;;29.79;32.21;100431.78;5107034;28;20097;-31
2023/09/07 11:33:01;;;;;;;8.43;4.60;;;;;;;29.57;33.19;100442.03;5106680;28;20039;-29
2023/09/07 11:35:48;;;;;;;8.80;4.63;;;;;;;29.50;33.58;100430.75;5090423;28;20036;-30
2023/09/07 11:38:15;;;;;;;10.50;4.90;;;;;;;29.84;33.29;100431.59;5105490;28;20062;-29
2023/09/07 11:40:44;;;;;;;7.13;5.20;;;;;;;29.40;33.56;100431.19;5106565;28;20139;-29
2023/09/07 11:43:10;;;;;;;7.28;4.85;;;;;;;29.25;34.54;100422.41;5106315;28;20119;-29